createdAt,value
2022-12-15T00:04:34.816Z,0.03
2022-12-15T00:09:55.157Z,-0.04
2022-12-15T00:15:15.538Z,-0.11
2022-12-15T00:20:35.791Z,-0.15
2022-12-15T00:25:56.221Z,-0.16
2022-12-15T00:31:17.077Z,-0.11
2022-12-15T00:36:37.188Z,0.02
2022-12-15T00:41:38.869Z,0.03
2022-12-15T00:46:56.118Z,0.11
2022-12-15T00:52:16.634Z,0.18
2022-12-15T00:57:36.806Z,0.17
2022-12-15T01:02:57.356Z,0.21
2022-12-15T01:08:18.112Z,0.20
2022-12-15T01:13:38.557Z,0.04
2022-12-15T01:18:58.904Z,-0.11
2022-12-15T01:24:00.573Z,-0.10
2022-12-15T01:29:02.157Z,-0.15
2022-12-15T01:34:03.797Z,-0.18
2022-12-15T01:39:05.422Z,-0.10
2022-12-15T01:44:15.902Z,-0.04
2022-12-15T01:49:20.990Z,-0.01
2022-12-15T01:54:28.390Z,-0.02
2022-12-15T01:59:33.013Z,-0.08
2022-12-15T02:04:34.965Z,-0.17
2022-12-15T02:09:36.537Z,-0.25
2022-12-15T02:14:54.097Z,-0.23
2022-12-15T02:20:34.141Z,-0.30
2022-12-15T02:25:54.608Z,-0.26
2022-12-15T02:31:20.079Z,-0.33
2022-12-15T02:36:42.032Z,-0.35
2022-12-15T02:41:44.955Z,-0.30
2022-12-15T02:46:49.614Z,-0.38
2022-12-15T02:52:00.558Z,-0.42
2022-12-15T02:57:17.964Z,-0.44
2022-12-15T03:02:19.739Z,-0.43
2022-12-15T03:07:23.539Z,-0.40
2022-12-15T03:12:25.307Z,-0.41
2022-12-15T03:17:27.497Z,-0.42
2022-12-15T03:22:29.109Z,-0.40
2022-12-15T03:27:31.072Z,-0.32
2022-12-15T03:32:32.622Z,-0.28
2022-12-15T03:37:34.265Z,-0.32
2022-12-15T03:42:51.244Z,-0.27
2022-12-15T03:47:53.413Z,-0.14
2022-12-15T03:52:56.025Z,-0.15
2022-12-15T03:57:57.893Z,-0.29
2022-12-15T04:02:59.888Z,-0.36
2022-12-15T04:08:02.084Z,-0.43
2022-12-15T04:13:07.648Z,-0.32
2022-12-15T04:18:13.905Z,-0.23
2022-12-15T04:23:15.746Z,-0.13
2022-12-15T04:28:35.813Z,-0.13
2022-12-15T04:33:58.040Z,-0.10
2022-12-15T04:39:18.957Z,-0.09
2022-12-15T04:44:39.111Z,-0.11
2022-12-15T04:49:59.598Z,-0.15
2022-12-15T04:55:19.762Z,-0.21
2022-12-15T05:00:40.006Z,-0.23
2022-12-15T05:06:00.796Z,-0.36
2022-12-15T05:11:21.472Z,-0.29
2022-12-15T05:16:41.942Z,-0.44
2022-12-15T05:22:02.203Z,-0.39
2022-12-15T05:27:22.518Z,-0.42
2022-12-15T05:32:24.109Z,-0.44
2022-12-15T05:37:25.711Z,-0.42
2022-12-15T05:42:27.439Z,-0.35
2022-12-15T05:47:28.952Z,-0.25
2022-12-15T05:52:30.526Z,-0.25
2022-12-15T05:57:32.445Z,-0.21
2022-12-15T06:02:34.108Z,-0.19
2022-12-15T06:07:37.356Z,-0.17
2022-12-15T06:12:39.040Z,-0.26
2022-12-15T06:17:40.671Z,-0.26
2022-12-15T06:22:46.580Z,-0.27
2022-12-15T06:27:51.258Z,-0.25
2022-12-15T06:32:54.793Z,-0.20
2022-12-15T06:37:56.838Z,0.53
2022-12-15T06:42:58.494Z,1.02
2022-12-15T06:48:01.645Z,1.14
2022-12-15T06:53:03.571Z,1.24
2022-12-15T06:58:05.171Z,1.31
2022-12-15T07:03:08.911Z,1.31
2022-12-15T07:08:11.519Z,1.31
2022-12-15T07:13:13.160Z,1.33
2022-12-15T07:18:14.824Z,1.26
2022-12-15T07:23:16.693Z,0.92
2022-12-15T07:28:24.115Z,0.65
2022-12-15T07:33:27.540Z,0.42
2022-12-15T07:38:29.423Z,0.41
2022-12-15T07:43:31.589Z,0.36
2022-12-15T07:48:33.807Z,0.25
2022-12-15T07:53:36.061Z,0.24
2022-12-15T07:58:40.749Z,0.25
2022-12-15T08:03:42.544Z,0.21
2022-12-15T08:08:44.925Z,0.25
2022-12-15T08:14:13.529Z,0.14
2022-12-15T08:19:15.305Z,-0.02
2022-12-15T08:24:17.489Z,-0.09
2022-12-15T08:34:42.252Z,-0.29
2022-12-15T08:39:43.907Z,-0.31
2022-12-15T08:44:48.002Z,-0.31
2022-12-15T08:49:50.205Z,-0.15
2022-12-15T08:54:52.027Z,0.01
2022-12-15T08:59:53.685Z,0.10
2022-12-15T09:04:55.448Z,0.22
2022-12-15T09:09:57.027Z,0.30
2022-12-15T09:14:58.783Z,0.39
2022-12-15T09:20:00.325Z,0.45
2022-12-15T09:25:02.318Z,0.46
2022-12-15T09:30:04.193Z,0.47
2022-12-15T09:35:06.006Z,0.56
2022-12-15T09:40:10.058Z,0.59
2022-12-15T09:45:20.717Z,0.57
2022-12-15T09:50:33.432Z,0.53
2022-12-15T09:55:35.149Z,0.57
2022-12-15T10:00:50.672Z,0.57
2022-12-15T10:06:17.163Z,0.62
2022-12-15T10:11:32.978Z,0.64
2022-12-15T10:16:40.595Z,0.75
2022-12-15T10:21:42.607Z,0.75
2022-12-15T10:26:49.288Z,0.79
2022-12-15T10:31:54.290Z,0.77
2022-12-15T10:36:56.475Z,0.80
2022-12-15T10:42:12.805Z,0.73
2022-12-15T10:47:18.028Z,0.75
2022-12-15T10:52:32.084Z,0.73
2022-12-15T10:57:33.799Z,0.79
2022-12-15T11:02:36.938Z,0.85
2022-12-15T11:07:49.878Z,0.87
2022-12-15T11:12:59.195Z,0.92
2022-12-15T11:18:08.438Z,0.99
2022-12-15T11:23:36.450Z,1.05
2022-12-15T11:28:44.661Z,1.07
2022-12-15T11:33:50.716Z,1.10
2022-12-15T11:39:02.943Z,1.14
2022-12-15T11:44:07.321Z,1.12
2022-12-15T11:49:09.285Z,1.07
2022-12-15T11:54:29.817Z,1.00
2022-12-15T11:59:31.367Z,0.99
2022-12-15T12:04:51.309Z,1.02
2022-12-15T12:09:59.116Z,1.06
2022-12-15T12:15:00.702Z,1.12
2022-12-15T12:20:11.296Z,1.17
2022-12-15T12:25:18.692Z,1.18
2022-12-15T12:30:21.537Z,1.23
2022-12-15T12:35:41.991Z,1.12
2022-12-15T12:41:06.702Z,1.17
2022-12-15T12:46:19.006Z,1.15
2022-12-15T12:51:23.751Z,1.17
2022-12-15T12:56:31.595Z,1.16
2022-12-15T13:01:34.309Z,1.19
2022-12-15T13:06:36.034Z,1.21
2022-12-15T13:11:58.083Z,1.19
2022-12-15T13:22:34.482Z,1.02
2022-12-15T13:27:37.236Z,1.12
2022-12-15T13:32:40.512Z,1.19
2022-12-15T13:38:04.214Z,1.25
2022-12-15T13:43:05.925Z,1.25
2022-12-15T13:48:13.451Z,1.24
2022-12-15T13:53:19.442Z,1.30
2022-12-15T13:58:23.043Z,1.31
2022-12-15T14:03:24.832Z,1.29
2022-12-15T14:08:28.482Z,1.30
2022-12-15T14:13:31.901Z,1.30
2022-12-15T14:18:38.321Z,1.31
2022-12-15T14:23:41.505Z,1.28
2022-12-15T14:28:45.837Z,1.28
2022-12-15T14:33:50.580Z,1.29
2022-12-15T14:38:52.435Z,1.25
2022-12-15T14:49:23.727Z,1.24
2022-12-15T14:54:33.744Z,1.26
2022-12-15T14:59:35.666Z,1.29
2022-12-15T15:03:06.024Z,1.27
2022-12-15T15:04:37.361Z,1.28
2022-12-15T15:09:40.190Z,1.24
2022-12-15T15:14:43.405Z,1.31
2022-12-15T15:20:00.493Z,1.32
2022-12-15T15:25:03.994Z,1.37
2022-12-15T15:30:14.603Z,1.39
2022-12-15T15:35:16.425Z,1.40
2022-12-15T15:40:18.236Z,1.38
2022-12-15T15:45:20.081Z,1.38
2022-12-15T15:50:27.370Z,1.36
2022-12-15T15:55:36.183Z,1.35
2022-12-15T16:00:41.389Z,1.28
2022-12-15T16:05:43.163Z,1.22
2022-12-15T16:10:47.442Z,1.19
2022-12-15T16:15:49.278Z,1.20
2022-12-15T16:20:51.663Z,1.21
2022-12-15T16:25:55.313Z,1.30
2022-12-15T16:31:01.447Z,1.32
2022-12-15T16:36:05.969Z,1.22
2022-12-15T16:41:11.181Z,1.20
2022-12-15T16:46:13.970Z,1.18
2022-12-15T16:51:26.600Z,1.12
2022-12-15T16:56:28.229Z,1.09
2022-12-15T17:01:33.122Z,1.02
2022-12-15T17:06:36.996Z,1.00
2022-12-15T17:11:39.313Z,1.02
2022-12-15T17:16:41.205Z,1.03
2022-12-15T17:21:48.027Z,1.05
2022-12-15T17:26:49.895Z,1.03
2022-12-15T17:31:52.076Z,1.02
2022-12-15T17:36:54.237Z,0.98
2022-12-15T17:42:00.878Z,0.98
2022-12-15T17:47:04.377Z,1.00
2022-12-15T17:52:12.429Z,0.99
2022-12-15T17:57:14.055Z,0.98
2022-12-15T18:02:15.985Z,0.97
2022-12-15T18:07:22.439Z,0.99
2022-12-15T18:12:25.603Z,0.96
2022-12-15T18:17:27.297Z,0.94
2022-12-15T18:22:29.254Z,1.01
2022-12-15T18:27:31.173Z,1.01
2022-12-15T18:32:38.267Z,1.02
2022-12-15T18:37:40.072Z,1.05
2022-12-15T18:42:42.498Z,1.01
2022-12-15T18:47:44.186Z,0.99
2022-12-15T18:52:46.209Z,0.98
2022-12-15T18:57:49.083Z,0.96
2022-12-15T19:02:52.459Z,0.94
2022-12-15T19:07:55.839Z,0.94
2022-12-15T19:12:58.792Z,0.93
2022-12-15T19:18:19.364Z,0.90
2022-12-15T19:23:21.724Z,0.93
2022-12-15T19:28:23.548Z,0.90
2022-12-15T19:33:25.329Z,0.87
2022-12-15T19:38:28.847Z,0.86
2022-12-15T19:43:30.931Z,0.86
2022-12-15T19:48:32.952Z,0.86
2022-12-15T19:53:36.244Z,0.78
2022-12-15T19:58:38.687Z,0.80
2022-12-15T20:03:41.740Z,0.81
2022-12-15T20:08:45.620Z,0.82
2022-12-15T20:13:47.829Z,0.84
2022-12-15T20:18:52.454Z,0.85
2022-12-15T20:23:58.469Z,0.86
2022-12-15T20:29:00.064Z,0.84
2022-12-15T20:34:01.856Z,0.82
2022-12-15T20:39:03.859Z,0.82
2022-12-15T20:44:05.740Z,0.79
2022-12-15T20:49:13.795Z,0.83
2022-12-15T20:54:17.516Z,0.85
2022-12-15T20:59:19.149Z,0.85
2022-12-15T21:04:25.781Z,0.87
2022-12-15T21:09:27.612Z,0.88
2022-12-15T21:14:30.097Z,0.86
2022-12-15T21:19:31.853Z,0.86
2022-12-15T21:24:33.428Z,0.82
2022-12-15T21:29:35.352Z,0.84
2022-12-15T21:34:37.476Z,0.88
2022-12-15T21:39:40.047Z,0.89
2022-12-15T21:44:41.706Z,0.92
2022-12-15T21:49:43.264Z,0.92
2022-12-15T21:54:44.943Z,0.91
2022-12-15T21:59:46.485Z,0.93
2022-12-15T22:04:49.199Z,0.96
2022-12-15T22:09:51.726Z,0.99
2022-12-15T22:14:53.476Z,0.99
2022-12-15T22:19:55.219Z,1.02
2022-12-15T22:24:56.848Z,1.04
2022-12-15T22:29:58.634Z,1.02
2022-12-15T22:35:00.297Z,1.05
2022-12-15T22:40:01.830Z,1.04
2022-12-15T22:45:04.544Z,1.03
2022-12-15T22:50:06.889Z,1.00
2022-12-15T22:55:12.793Z,1.02
2022-12-15T23:00:14.676Z,0.99
2022-12-15T23:05:17.736Z,1.03
2022-12-15T23:10:38.274Z,1.03
2022-12-15T23:15:58.736Z,1.05
2022-12-15T23:21:00.428Z,1.01
2022-12-15T23:26:02.265Z,0.93
2022-12-15T23:31:03.983Z,0.92
2022-12-15T23:36:06.207Z,0.93
2022-12-15T23:41:08.129Z,0.94
2022-12-15T23:46:10.000Z,0.89
2022-12-15T23:51:13.565Z,0.81
2022-12-15T23:56:23.025Z,0.75
